Atlanta, Georgia
Traffic Map
Current Weather Conditions
Atlanta, Georgia
Broken Clouds
Broken Clouds
67°
Feels Like: 67°
Wind Chill: 67° Ceiling: 1500
Heat Index: 67° Visibility: 10mi
Dew Point: 63° Wind: 12mph
Humidity: 87% Direction: 220° (SW)
Pressure: 30.05in Gusts: 0mph
Raw Report DataKATL 251152Z 22010KT 10SM BKN015 BKN030 BKN085 19/17 A3005 RMK AO2 SLP169 CIG 014V018 BKN015 V SCT T01940172 10200 20189 53004
Traffic Incident Summary
Active as of:
Severity:
Category:
InformationThere was an issue retrieving the traffic information for this location. Please try a different location or try again shortly.
Advertisements